Time;durP1;ratioP1;P1;durP2;ratioP2;P2;SDS_P1;SDS_P2;PMS_P1;PMS_P2;Temp;Humidity;BMP_temperature;BMP_pressure;BME280_temperature;BME280_humidity;BME280_pressure;Samples;Min_cycle;Max_cycle;Signal;HPM_P1;HPM_P2
2021/12/12 00:24:16;85745.00;0.29;148.96;0.00;0.00;0.62;;;;;11.50;1.00;;;;;;2489420;40;3441;31
2021/12/12 00:26:43;64170.00;0.21;111.68;0.00;0.00;0.62;;;;;11.30;1.00;;;;;;2488035;55;4059;31
2021/12/12 00:34:11;317679.00;1.06;548.31;0.00;0.00;0.62;;;;;11.50;1.00;;;;;;2263611;61;961;-88
2021/12/12 00:39:10;425839.00;1.42;734.23;0.00;0.00;0.62;;;;;11.40;1.00;;;;;;2267686;61;1301;-87
2021/12/12 00:44:07;615810.00;2.05;1061.53;0.00;0.00;0.62;;;;;11.90;1.00;;;;;;2493496;55;3579;31
2021/12/12 00:46:34;614469.00;2.05;1059.21;170.00;0.00;0.91;;;;;11.90;1.00;;;;;;2492914;55;3999;31
2021/12/12 00:49:00;461739.00;1.54;795.98;0.00;0.00;0.62;;;;;11.40;1.00;;;;;;2493796;55;3713;31
2021/12/12 00:51:28;725261.00;2.42;1251.07;70336.00;0.23;122.34;;;;;10.90;1.00;;;;;;2487945;55;4005;31
2021/12/12 00:53:56;613946.00;2.05;1058.31;0.00;0.00;0.62;;;;;10.70;1.00;;;;;;2494305;55;3710;31
2021/12/12 01:03:54;518012.00;1.73;892.84;0.00;0.00;0.62;;;;;11.10;1.00;;;;;;2494190;40;3457;31
2021/12/12 01:23:55;453113.00;1.51;781.14;87735.00;0.29;152.40;;;;;11.20;1.00;;;;;;2270975;61;1242;-83
2021/12/12 01:26:22;805905.00;2.69;1391.42;97240.00;0.32;168.81;;;;;11.70;1.00;;;;;;2269414;61;1004;-83
2021/12/12 01:28:54;345185.00;1.15;595.59;94331.00;0.31;163.79;;;;;11.90;1.00;;;;;;2262165;61;947;-84
2021/12/12 01:31:26;740457.00;2.47;1277.47;98125.00;0.33;170.34;;;;;11.60;1.00;;;;;;2261667;61;1921;-83
2021/12/12 01:33:59;936975.00;3.12;1621.16;94486.00;0.31;164.05;;;;;11.50;1.00;;;;;;2261040;61;919;-83
2021/12/12 01:36:42;977720.00;3.26;1693.05;117672.00;0.39;204.07;;;;;11.10;1.00;;;;;;2260855;61;949;-83
2021/12/12 01:39:12;1024867.00;3.42;1776.56;10718.00;0.04;19.19;;;;;10.80;1.00;;;;;;2260995;61;1017;-82
2021/12/12 01:41:45;596398.00;1.99;1028.00;93550.00;0.31;162.44;;;;;11.10;1.00;;;;;;2260914;61;1464;-83
2021/12/12 01:44:17;716822.00;2.39;1236.42;5715.00;0.02;10.52;;;;;11.20;1.00;;;;;;2261058;61;997;-83
2021/12/12 01:46:51;548943.00;1.83;946.14;0.00;0.00;0.62;;;;;11.40;1.00;;;;;;2254126;61;1018;-83
2021/12/12 01:49:23;717253.00;2.39;1237.17;0.00;0.00;0.62;;;;;11.60;1.00;;;;;;2260903;61;1009;-84
2021/12/12 01:51:51;616622.00;2.06;1062.93;0.00;0.00;0.62;;;;;11.60;1.00;;;;;;2262797;61;2033;-83
2021/12/12 01:54:23;870634.00;2.90;1504.60;113532.00;0.38;196.92;;;;;11.70;1.00;;;;;;2265310;61;1003;-82
2021/12/12 01:56:59;852897.00;2.84;1473.54;90388.00;0.30;156.98;;;;;11.70;1.00;;;;;;2258158;61;998;-83
2021/12/12 01:59:30;1006586.00;3.36;1744.14;62667.00;0.21;109.09;;;;;11.00;1.00;;;;;;2258300;61;994;-83
2021/12/12 02:02:04;919997.00;3.07;1591.27;86604.00;0.29;150.44;;;;;10.70;1.00;;;;;;2258118;61;1338;-86
2021/12/12 02:04:38;685954.00;2.29;1182.89;0.00;0.00;0.62;;;;;10.60;1.00;;;;;;2258229;61;1008;-83
2021/12/12 02:07:09;671342.00;2.24;1157.58;46601.00;0.16;81.31;;;;;11.00;1.00;;;;;;2256783;61;927;-83
2021/12/12 02:09:39;853080.00;2.84;1473.86;27361.00;0.09;48.01;;;;;11.20;1.00;;;;;;2256852;61;1044;-82
2021/12/12 02:12:07;905784.00;3.02;1566.28;33175.00;0.11;58.08;;;;;11.40;1.00;;;;;;2253462;61;1928;-84
2021/12/12 02:14:38;723515.00;2.41;1248.04;48242.00;0.16;84.15;;;;;11.40;1.00;;;;;;2246946;61;1048;-82
2021/12/12 02:17:20;740242.00;2.47;1277.10;28806.00;0.10;50.52;;;;;11.50;1.00;;;;;;2247073;61;1002;-82
2021/12/12 02:20:03;541711.00;1.81;933.67;10886.00;0.04;19.48;;;;;11.20;1.00;;;;;;2250006;61;962;-83
2021/12/12 02:22:47;206227.00;0.69;356.64;0.00;0.00;0.62;;;;;10.90;1.00;;;;;;2248738;61;1493;-83
2021/12/12 02:36:19;210117.00;0.70;363.34;0.00;0.00;0.62;;;;;12.30;1.00;;;;;;2256840;61;874;-80
2021/12/12 02:38:52;585012.00;1.95;1008.35;0.00;0.00;0.62;;;;;12.20;1.00;;;;;;2256741;61;1009;-83
2021/12/12 02:41:21;492807.00;1.64;849.44;7241.00;0.02;13.17;;;;;12.30;1.00;;;;;;2256763;61;1397;-82
2021/12/12 02:43:53;436894.00;1.46;753.24;8449.00;0.03;15.26;;;;;12.30;1.00;;;;;;2264478;61;996;-83
2021/12/12 02:46:25;597355.00;1.99;1029.65;23572.00;0.08;41.46;;;;;12.20;1.00;;;;;;2265168;61;993;-82
2021/12/12 02:48:58;371871.00;1.24;641.45;46175.00;0.15;80.57;;;;;12.20;1.00;;;;;;2265092;61;1025;-83
2021/12/12 02:51:26;234252.00;0.78;404.86;0.00;0.00;0.62;;;;;12.40;1.00;;;;;;2256532;61;1931;-82
2021/12/12 02:53:57;555810.00;1.85;957.98;20065.00;0.07;35.38;;;;;12.50;1.00;;;;;;2256656;61;1013;-83
2021/12/12 02:56:28;352609.00;1.18;608.35;0.00;0.00;0.62;;;;;12.60;1.00;;;;;;2256717;61;1024;-82
2021/12/12 02:58:56;497685.00;1.66;857.84;8623.00;0.03;15.56;;;;;12.60;1.00;;;;;;2256668;61;1002;-82
2021/12/12 03:01:30;443853.00;1.48;765.21;0.00;0.00;0.62;;;;;12.50;1.00;;;;;;2250014;61;1346;-81
2021/12/12 03:03:57;376676.00;1.26;649.71;23016.00;0.08;40.49;;;;;12.40;1.00;;;;;;2256721;61;1058;-82
2021/12/12 03:06:28;420393.00;1.40;724.87;0.00;0.00;0.62;;;;;12.40;1.00;;;;;;2256580;61;1748;-84
2021/12/12 03:09:06;524702.00;1.75;904.36;0.00;0.00;0.62;;;;;12.10;1.00;;;;;;2258841;61;1061;-82
2021/12/12 03:11:33;563286.00;1.88;970.87;24465.00;0.08;43.00;;;;;12.10;1.00;;;;;;2258098;61;1908;-81
2021/12/12 03:14:00;739896.00;2.47;1276.49;4385.00;0.01;8.22;;;;;12.10;1.00;;;;;;2258108;61;1012;-83
2021/12/12 03:16:28;562603.00;1.88;969.69;0.00;0.00;0.62;;;;;12.20;1.00;;;;;;2260711;61;973;-81
2021/12/12 03:18:55;535716.00;1.79;923.34;20122.00;0.07;35.48;;;;;12.40;1.00;;;;;;2260280;61;1059;-83
2021/12/12 03:21:30;633426.00;2.11;1091.97;0.00;0.00;0.62;;;;;12.50;1.00;;;;;;2254159;61;1222;-83
2021/12/12 03:24:01;255257.00;0.85;440.99;0.00;0.00;0.62;;;;;12.00;1.00;;;;;;2257195;61;1065;-80
2021/12/12 03:26:28;568692.00;1.90;980.19;7212.00;0.02;13.12;;;;;11.60;1.00;;;;;;2256787;61;921;-83
2021/12/12 03:28:57;569880.00;1.90;982.24;373.00;0.00;1.27;;;;;11.90;1.00;;;;;;2252437;61;1045;-82
2021/12/12 03:31:27;516826.00;1.72;890.80;25651.00;0.09;45.05;;;;;12.10;1.00;;;;;;2242644;61;1995;-82
2021/12/12 03:33:55;382361.00;1.27;659.48;0.00;0.00;0.62;;;;;12.00;1.00;;;;;;2243645;61;1056;-82
2021/12/12 03:36:23;403311.00;1.34;695.50;40594.00;0.14;70.92;;;;;12.10;1.00;;;;;;2256494;61;890;-83
2021/12/12 03:38:55;558243.00;1.86;962.17;27784.00;0.09;48.75;;;;;12.40;1.00;;;;;;2252412;61;959;-82
2021/12/12 03:41:28;364740.00;1.22;629.20;0.00;0.00;0.62;;;;;12.30;1.00;;;;;;2242565;61;1339;-83
2021/12/12 03:44:00;187316.00;0.62;324.09;4095.00;0.01;7.72;;;;;12.30;1.00;;;;;;2252461;61;1020;-84
2021/12/12 03:46:27;231205.00;0.77;399.62;0.00;0.00;0.62;;;;;12.40;1.00;;;;;;2247981;61;989;-83
2021/12/12 03:48:55;354714.00;1.18;611.96;0.00;0.00;0.62;;;;;12.40;1.00;;;;;;2252297;61;1011;-82
2021/12/12 03:51:25;242492.00;0.81;419.04;0.00;0.00;0.62;;;;;12.00;1.00;;;;;;2252123;61;2005;-83
2021/12/12 03:53:53;605039.00;2.02;1042.92;85536.00;0.29;148.60;;;;;12.20;1.00;;;;;;2252395;61;1042;-83
2021/12/12 03:56:22;228657.00;0.76;395.24;0.00;0.00;0.62;;;;;12.30;1.00;;;;;;2253511;61;1041;-82
2021/12/12 03:58:50;295582.00;0.99;510.33;0.00;0.00;0.62;;;;;12.40;1.00;;;;;;2256644;61;1002;-82
2021/12/12 04:01:21;301976.00;1.01;521.32;27067.00;0.09;47.51;;;;;12.10;1.00;;;;;;2256408;61;1408;-82
2021/12/12 04:03:51;206636.00;0.69;357.35;0.00;0.00;0.62;;;;;12.40;1.00;;;;;;2256576;61;1028;-82
2021/12/12 04:06:24;382153.00;1.27;659.13;4399.00;0.01;8.24;;;;;12.40;1.00;;;;;;2249944;61;994;-82
2021/12/12 04:08:52;189595.00;0.63;328.01;0.00;0.00;0.62;;;;;12.40;1.00;;;;;;2256516;61;1000;-81
2021/12/12 04:11:22;83759.00;0.28;145.53;0.00;0.00;0.62;;;;;12.30;1.00;;;;;;2256324;61;2007;-83
2021/12/12 04:13:54;390037.00;1.30;672.68;10350.00;0.03;18.56;;;;;12.10;1.00;;;;;;2253156;61;980;-84
2021/12/12 04:16:21;177552.00;0.59;307.27;0.00;0.00;0.62;;;;;11.60;1.00;;;;;;2256459;61;1037;-82
2021/12/12 04:18:49;394687.00;1.32;680.67;26287.00;0.09;46.16;;;;;11.80;1.00;;;;;;2254097;61;928;-83
2021/12/12 04:21:20;441244.00;1.47;760.72;27179.00;0.09;47.70;;;;;11.90;1.00;;;;;;2253817;61;1390;-82
2021/12/12 04:23:48;272854.00;0.91;471.25;0.00;0.00;0.62;;;;;11.80;1.00;;;;;;2256981;61;973;-83
2021/12/12 04:26:19;454597.00;1.52;783.69;9144.00;0.03;16.47;;;;;12.00;1.00;;;;;;2255900;61;997;-83
2021/12/12 04:28:57;445962.00;1.49;768.84;0.00;0.00;0.62;;;;;12.10;1.00;;;;;;2252330;61;956;-82
2021/12/12 04:31:25;225568.00;0.75;389.92;0.00;0.00;0.62;;;;;11.70;1.00;;;;;;2244396;61;2053;-83
2021/12/12 04:33:53;761078.00;2.54;1313.33;65515.00;0.22;114.01;;;;;12.00;1.00;;;;;;2244428;61;935;-83
2021/12/12 04:36:26;546422.00;1.82;941.79;0.00;0.00;0.62;;;;;12.30;1.00;;;;;;2243375;61;1014;-84
2021/12/12 04:38:59;442430.00;1.47;762.76;7570.00;0.03;13.74;;;;;12.60;1.00;;;;;;2240666;61;1006;-84
2021/12/12 04:41:26;316310.00;1.05;545.96;18931.00;0.06;33.42;;;;;12.70;1.00;;;;;;2240367;61;1441;-81
2021/12/12 04:43:53;402277.00;1.34;693.72;0.00;0.00;0.62;;;;;12.80;1.00;;;;;;2243038;61;983;-83
2021/12/12 04:46:36;432743.00;1.44;746.10;6786.00;0.02;12.38;;;;;12.80;1.00;;;;;;2249651;61;958;-84
2021/12/12 04:51:56;99733.00;0.33;173.11;0.00;0.00;0.62;;;;;13.00;1.00;;;;;;2262305;61;2004;-83
2021/12/12 04:54:32;546638.00;1.82;942.16;0.00;0.00;0.62;;;;;12.90;1.00;;;;;;2264775;61;981;-81
2021/12/12 04:57:04;474361.00;1.58;817.69;0.00;0.00;0.62;;;;;13.00;1.00;;;;;;2264834;61;1021;-83
2021/12/12 04:59:36;556913.00;1.86;959.88;0.00;0.00;0.62;;;;;12.90;1.00;;;;;;2256402;61;933;-82
2021/12/12 05:04:41;857524.00;2.86;1481.64;49069.00;0.16;85.58;;;;;12.80;1.00;;;;;;2271033;61;1402;-84
2021/12/12 05:07:13;520692.00;1.74;897.46;31986.00;0.11;56.02;;;;;12.80;1.00;;;;;;2262492;61;1023;-82
2021/12/12 05:09:49;575045.00;1.92;991.15;60946.00;0.20;106.11;;;;;12.80;1.00;;;;;;2260945;61;962;-80
2021/12/12 05:17:24;764710.00;2.55;1319.65;50413.00;0.17;87.90;;;;;12.80;1.00;;;;;;2271156;61;1220;-81
2021/12/12 05:20:09;594246.00;1.98;1024.29;66007.00;0.22;114.86;;;;;12.70;1.00;;;;;;2259094;61;966;-82
2021/12/12 05:22:40;64413.00;0.21;112.10;0.00;0.00;0.62;;;;;12.10;1.00;;;;;;2261773;61;1406;-82
2021/12/12 05:25:16;223828.00;0.75;386.93;0.00;0.00;0.62;;;;;11.60;1.00;;;;;;2265379;61;938;-83
2021/12/12 05:27:45;207571.00;0.69;358.95;56577.00;0.19;98.56;;;;;11.40;1.00;;;;;;2257146;61;969;-81
2021/12/12 05:30:16;213648.00;0.71;369.41;0.00;0.00;0.62;;;;;10.60;1.00;;;;;;2247241;61;961;-81
2021/12/12 05:32:45;146067.00;0.49;253.03;0.00;0.00;0.62;;;;;10.90;1.00;;;;;;2257243;61;1921;-82
2021/12/12 05:35:16;94925.00;0.32;164.81;0.00;0.00;0.62;;;;;10.20;1.00;;;;;;2257184;61;1066;-83
2021/12/12 05:37:46;149038.00;0.50;258.15;0.00;0.00;0.62;;;;;10.50;1.00;;;;;;2250610;61;949;-81
2021/12/12 05:45:10;160884.00;0.54;278.56;0.00;0.00;0.62;;;;;11.40;1.00;;;;;;2271136;61;1402;-84
2021/12/12 05:47:38;90747.00;0.30;157.60;0.00;0.00;0.62;;;;;11.50;1.00;;;;;;2262397;61;1005;-83
2021/12/12 05:50:07;74250.00;0.25;129.10;0.00;0.00;0.62;;;;;10.90;1.00;;;;;;2260743;61;960;-82
2021/12/12 05:52:36;160416.00;0.53;277.76;0.00;0.00;0.62;;;;;10.70;1.00;;;;;;2260793;61;1920;-81
2021/12/12 05:57:35;196195.00;0.65;339.37;0.00;0.00;0.62;;;;;11.40;1.00;;;;;;2271338;61;1304;-81
2021/12/12 06:00:08;133137.00;0.44;230.74;0.00;0.00;0.62;;;;;11.60;1.00;;;;;;2269286;61;1012;-83
2021/12/12 06:02:35;263844.00;0.88;455.76;0.00;0.00;0.62;;;;;11.80;1.00;;;;;;2261668;61;1370;-82
2021/12/12 06:05:03;241910.00;0.81;418.04;0.00;0.00;0.62;;;;;11.90;1.00;;;;;;2261808;61;1014;-82
2021/12/12 06:07:33;99975.00;0.33;173.53;0.00;0.00;0.62;;;;;12.00;1.00;;;;;;2258463;61;921;-83
2021/12/12 06:10:04;117723.00;0.39;204.15;0.00;0.00;0.62;;;;;11.90;1.00;;;;;;2265384;61;923;-80
2021/12/12 06:12:34;89354.00;0.30;155.19;0.00;0.00;0.62;;;;;12.00;1.00;;;;;;2265308;61;2015;-83
2021/12/12 06:15:03;73597.00;0.25;127.98;0.00;0.00;0.62;;;;;11.90;1.00;;;;;;2256365;61;1025;-82
2021/12/12 06:17:32;82584.00;0.28;143.50;0.00;0.00;0.62;;;;;11.80;1.00;;;;;;2248944;61;1041;-81
2021/12/12 06:19:59;104625.00;0.35;181.55;0.00;0.00;0.62;;;;;11.80;1.00;;;;;;2391012;40;3881;31
2021/12/12 06:22:27;109424.00;0.36;189.84;0.00;0.00;0.62;;;;;12.10;1.00;;;;;;2266732;61;1513;-82
2021/12/12 06:24:54;139345.00;0.46;241.44;0.00;0.00;0.62;;;;;12.10;1.00;;;;;;2269258;61;997;-84
2021/12/12 06:27:23;136737.00;0.46;236.95;0.00;0.00;0.62;;;;;12.20;1.00;;;;;;2256848;61;1013;-81
2021/12/12 06:29:53;106686.00;0.36;185.11;0.00;0.00;0.62;;;;;12.10;1.00;;;;;;2253779;61;1018;-83
2021/12/12 06:32:21;118537.00;0.40;205.56;0.00;0.00;0.62;;;;;12.20;1.00;;;;;;2252266;61;2013;-82
2021/12/12 06:34:50;116536.00;0.39;202.11;0.00;0.00;0.62;;;;;12.30;1.00;;;;;;2253072;61;1003;-80
2021/12/12 06:39:45;112848.00;0.38;195.74;0.00;0.00;0.62;;;;;12.30;1.00;;;;;;2270743;61;1371;-83
2021/12/12 06:42:13;198370.00;0.66;343.12;0.00;0.00;0.62;;;;;12.20;1.00;;;;;;2262726;61;1333;-83
2021/12/12 06:44:43;125840.00;0.42;218.16;0.00;0.00;0.62;;;;;11.70;1.00;;;;;;2264650;61;1010;-81
2021/12/12 06:47:13;124988.00;0.42;216.69;0.00;0.00;0.62;;;;;11.30;1.00;;;;;;2264747;61;990;-79
2021/12/12 06:49:40;174532.00;0.58;302.07;0.00;0.00;0.62;;;;;11.40;1.00;;;;;;2264688;61;1003;-83
2021/12/12 07:02:01;82883.00;0.28;144.02;0.00;0.00;0.62;;;;;11.20;1.00;;;;;;2270796;61;1443;-82
2021/12/12 07:07:00;243262.00;0.81;420.36;0.00;0.00;0.62;;;;;10.50;1.00;;;;;;2270991;61;1291;-85
2021/12/12 07:11:56;230748.00;0.77;398.84;0.00;0.00;0.62;;;;;10.10;1.00;;;;;;2270681;61;1899;-81
2021/12/12 07:16:51;196845.00;0.66;340.49;0.00;0.00;0.62;;;;;9.70;1.00;;;;;;2270776;61;1288;-81
2021/12/12 07:19:19;371589.00;1.24;640.97;0.00;0.00;0.62;;;;;10.10;1.00;;;;;;2269318;61;383;-87
2021/12/12 07:21:46;131413.00;0.44;227.77;0.00;0.00;0.62;;;;;10.20;1.00;;;;;;2262189;61;1298;-86
2021/12/12 07:26:41;545211.00;1.82;939.70;25777.00;0.09;45.27;;;;;9.50;1.00;;;;;;2270480;61;1343;-84
2021/12/12 07:29:09;778612.00;2.60;1343.85;62384.00;0.21;108.60;;;;;9.20;1.00;;;;;;2269227;61;375;-87
2021/12/12 07:31:39;743937.00;2.48;1283.52;63440.00;0.21;110.42;;;;;8.90;1.00;;;;;;2512049;40;4053;31
2021/12/12 07:34:10;819646.00;2.73;1415.41;33964.00;0.11;59.44;;;;;8.90;1.00;;;;;;2258122;61;1347;-82
2021/12/12 07:36:48;736938.00;2.46;1271.35;69936.00;0.23;121.65;;;;;8.50;1.00;;;;;;2253343;61;1070;-84
2021/12/12 07:39:17;249767.00;0.83;431.55;0.00;0.00;0.62;;;;;8.70;1.00;;;;;;2256657;61;1026;-83
2021/12/12 07:41:46;147551.00;0.49;255.59;0.00;0.00;0.62;;;;;8.30;1.00;;;;;;2258690;61;1409;-82
2021/12/12 07:44:16;296932.00;0.99;512.65;13595.00;0.05;24.18;;;;;8.20;1.00;;;;;;2257400;61;995;-81
2021/12/12 07:46:46;211706.00;0.71;366.07;0.00;0.00;0.62;;;;;8.30;1.00;;;;;;2260451;61;978;-82
2021/12/12 07:49:13;230102.00;0.77;397.72;0.00;0.00;0.62;;;;;8.30;1.00;;;;;;2252537;61;1030;-83
2021/12/12 07:51:43;847284.00;2.82;1463.72;0.00;0.00;0.62;;;;;8.90;1.00;;;;;;2250179;61;1993;-84
2021/12/12 07:54:11;624456.00;2.08;1076.47;0.00;0.00;0.62;;;;;8.80;1.00;;;;;;2241355;61;930;-81
2021/12/12 07:56:41;732512.00;2.44;1263.67;16309.00;0.05;28.88;;;;;9.40;1.00;;;;;;2244775;61;997;-83
2021/12/12 07:59:10;255556.00;0.85;441.51;0.00;0.00;0.62;;;;;9.70;1.00;;;;;;2241446;61;970;-83
2021/12/12 08:04:06;319178.00;1.06;550.89;0.00;0.00;0.62;;;;;10.10;1.00;;;;;;2270959;61;1320;-84
2021/12/12 08:09:04;717271.00;2.39;1237.20;0.00;0.00;0.62;;;;;9.70;1.00;;;;;;2270837;61;1312;-83
2021/12/12 08:11:34;674920.00;2.25;1163.77;13638.00;0.05;24.25;;;;;9.80;1.00;;;;;;2269028;61;1144;-83
2021/12/12 08:14:02;576748.00;1.92;994.09;40558.00;0.14;70.85;;;;;10.00;1.00;;;;;;2256522;61;1944;-84
2021/12/12 08:18:59;497912.00;1.66;858.23;25910.00;0.09;45.50;;;;;10.20;1.00;;;;;;2270514;61;1303;-85
2021/12/12 08:24:00;313108.00;1.04;540.45;9796.00;0.03;17.60;;;;;10.30;1.00;;;;;;2270507;61;1312;-84
2021/12/12 08:26:29;528240.00;1.76;910.46;24430.00;0.08;42.94;;;;;10.40;1.00;;;;;;2269012;61;1028;-84
2021/12/12 08:28:56;435985.00;1.45;751.68;0.00;0.00;0.62;;;;;10.70;1.00;;;;;;2261929;61;1008;-83
2021/12/12 08:31:23;554963.00;1.85;956.52;10920.00;0.04;19.54;;;;;10.50;1.00;;;;;;2260253;61;1373;-83
2021/12/12 08:33:50;482392.00;1.61;831.51;2914.00;0.01;5.67;;;;;10.00;1.00;;;;;;2250496;61;1940;-84
2021/12/12 08:36:18;371277.00;1.24;640.43;24965.00;0.08;43.87;;;;;9.90;1.00;;;;;;2264338;61;1093;-83
2021/12/12 08:38:45;343278.00;1.14;592.31;0.00;0.00;0.62;;;;;9.90;1.00;;;;;;2257162;61;970;-83
2021/12/12 08:41:12;531101.00;1.77;915.39;20700.00;0.07;36.48;;;;;10.20;1.00;;;;;;2253776;61;1307;-83
2021/12/12 08:43:43;560580.00;1.87;966.20;35609.00;0.12;62.29;;;;;9.90;1.00;;;;;;2257104;61;1032;-83
2021/12/12 08:46:13;694536.00;2.32;1197.76;9609.00;0.03;17.27;;;;;9.40;1.00;;;;;;2253730;61;1005;-82
2021/12/12 08:48:42;378582.00;1.26;652.99;0.00;0.00;0.62;;;;;9.40;1.00;;;;;;2257148;61;979;-83
2021/12/12 08:51:17;523280.00;1.74;901.91;0.00;0.00;0.62;;;;;9.60;1.00;;;;;;2256675;61;1376;-83
2021/12/12 08:56:20;646987.00;2.16;1115.42;1851.00;0.01;3.83;;;;;9.70;1.00;;;;;;2271207;61;1339;-81
2021/12/12 09:03:51;410029.00;1.37;707.05;0.00;0.00;0.62;;;;;10.10;1.00;;;;;;2271181;61;1146;-85
2021/12/12 09:08:54;483472.00;1.61;833.37;7115.00;0.02;12.95;;;;;10.70;1.00;;;;;;2270863;61;1371;-83
2021/12/12 09:16:21;415179.00;1.38;715.90;0.00;0.00;0.62;;;;;10.40;1.00;;;;;;2270882;61;1235;-83
2021/12/12 09:18:56;635599.00;2.12;1095.73;0.00;0.00;0.62;;;;;10.60;1.00;;;;;;2260682;61;936;-84
2021/12/12 09:21:31;462188.00;1.54;796.75;12394.00;0.04;22.10;;;;;10.80;1.00;;;;;;2260811;61;1298;-84
2021/12/12 09:24:06;694069.00;2.31;1196.96;0.00;0.00;0.62;;;;;10.80;1.00;;;;;;2257232;61;930;-81
2021/12/12 09:31:32;1006975.00;3.36;1744.83;125564.00;0.42;217.68;;;;;11.00;1.00;;;;;;2271155;61;1442;-83
2021/12/12 09:34:05;1014605.00;3.38;1758.36;122717.00;0.41;212.77;;;;;11.10;1.00;;;;;;2269650;61;1985;-80
2021/12/12 09:36:38;744152.00;2.48;1283.89;101506.00;0.34;176.17;;;;;10.00;1.00;;;;;;2259149;61;989;-82
2021/12/12 09:44:36;461781.00;1.54;796.05;93369.00;0.31;162.12;;;;;10.60;1.00;;;;;;2270981;61;1146;-83
2021/12/12 09:47:29;377048.00;1.26;650.35;83425.00;0.28;144.95;;;;;10.70;1.00;;;;;;2257413;61;1036;-83
2021/12/12 09:53:23;99196.00;0.33;172.18;0.00;0.00;0.62;;;;;10.30;1.00;;;;;;2256953;61;1918;-81
2021/12/12 09:55:54;424293.00;1.41;731.57;103012.00;0.34;178.77;;;;;10.40;1.00;;;;;;2252545;61;1029;-85
2021/12/12 09:58:33;148769.00;0.50;257.69;0.00;0.00;0.62;;;;;10.70;1.00;;;;;;2246134;61;995;-81
2021/12/12 10:03:39;110571.00;0.37;191.82;0.00;0.00;0.62;;;;;10.80;1.00;;;;;;2270991;61;1383;-82
2021/12/12 10:16:06;51782.00;0.17;90.27;0.00;0.00;0.62;;;;;10.70;1.00;;;;;;2270921;61;1418;-83
2021/12/12 10:18:49;146163.00;0.49;253.19;0.00;0.00;0.62;;;;;10.90;1.00;;;;;;2269350;61;1025;-82
2021/12/12 10:21:22;324113.00;1.08;559.37;0.00;0.00;0.62;;;;;10.90;1.00;;;;;;2261924;61;1678;-83
2021/12/12 10:24:03;144327.00;0.48;250.03;0.00;0.00;0.62;;;;;11.20;1.00;;;;;;2269102;61;1313;-83
2021/12/12 10:26:36;108749.00;0.36;188.67;0.00;0.00;0.62;;;;;11.30;1.00;;;;;;2269061;61;1790;-83
2021/12/12 10:29:08;103990.00;0.35;180.46;0.00;0.00;0.62;;;;;10.70;1.00;;;;;;2269197;61;1017;-81
2021/12/12 10:31:43;216706.00;0.72;374.68;0.00;0.00;0.62;;;;;9.60;1.00;;;;;;2265211;61;1511;-82
2021/12/12 10:34:14;101153.00;0.34;175.56;0.00;0.00;0.62;;;;;8.40;1.00;;;;;;2262000;61;2002;-82
2021/12/12 10:36:51;318004.00;1.06;548.87;0.00;0.00;0.62;;;;;8.10;1.00;;;;;;2268994;61;894;-81
2021/12/12 10:39:19;201916.00;0.67;349.22;0.00;0.00;0.62;;;;;8.10;1.00;;;;;;2359757;40;3960;31
2021/12/12 10:41:49;731588.00;2.44;1262.06;54741.00;0.18;95.38;;;;;8.10;1.00;;;;;;2264511;61;1384;-83
2021/12/12 10:44:23;1235963.00;4.12;2155.38;290527.00;0.97;501.64;;;;;7.70;1.00;;;;;;2260704;61;986;-82
2021/12/12 10:46:59;994023.00;3.31;1721.89;117156.00;0.39;203.18;;;;;8.10;1.00;;;;;;2261062;61;1005;-83
2021/12/12 10:49:33;1399319.00;4.66;2455.06;176952.00;0.59;306.24;;;;;8.60;1.00;;;;;;2260555;61;1018;-84
2021/12/12 11:16:54;328553.00;1.10;567.00;94502.00;0.32;164.08;;;;;10.00;1.00;;;;;;2271048;61;916;-88
2021/12/12 11:19:29;353059.00;1.18;609.12;90275.00;0.30;156.78;;;;;9.90;1.00;;;;;;2260684;61;814;-88
2021/12/12 11:54:12;15456.00;0.05;27.40;0.00;0.00;0.62;;;;;9.90;1.00;;;;;;2498079;55;3598;31
2021/12/12 12:13:56;852805.00;2.84;1473.38;121183.00;0.40;210.12;;;;;9.80;1.00;;;;;;2495383;40;3522;31
2021/12/12 12:54:03;29943.00;0.10;52.48;0.00;0.00;0.62;;;;;10.80;1.00;;;;;;2494886;40;3591;31
2021/12/12 13:01:30;1258963.00;4.20;2197.20;128442.00;0.43;222.64;;;;;11.00;1.00;;;;;;2495408;55;3618;31
2021/12/12 13:09:13;139767.00;0.47;242.17;0.00;0.00;0.62;;;;;11.30;1.00;;;;;;2495127;55;3563;31
2021/12/12 13:14:15;1177310.00;3.92;2049.25;46891.00;0.16;81.81;;;;;11.00;1.00;;;;;;2493973;55;3606;31
2021/12/12 13:32:06;341084.00;1.14;588.54;0.00;0.00;0.62;;;;;11.50;1.00;;;;;;2274783;61;1190;-87
2021/12/12 13:35:03;178401.00;0.59;308.74;0.00;0.00;0.62;;;;;11.80;1.00;;;;;;2264252;61;2002;-86
2021/12/12 13:37:57;224993.00;0.75;388.93;0.00;0.00;0.62;;;;;12.00;1.00;;;;;;2260224;61;1430;-86
2021/12/12 13:40:51;104016.00;0.35;180.50;0.00;0.00;0.62;;;;;11.90;1.00;;;;;;2256233;61;1056;-87
2021/12/12 13:43:39;342858.00;1.14;591.59;88835.00;0.30;154.30;;;;;11.90;1.00;;;;;;2252272;61;969;-86
2021/12/12 13:46:27;26211.00;0.09;46.02;0.00;0.00;0.62;;;;;11.80;1.00;;;;;;2252313;61;1321;-86
2021/12/12 13:49:13;96480.00;0.32;167.50;0.00;0.00;0.62;;;;;11.90;1.00;;;;;;2244299;61;958;-87
2021/12/12 13:52:02;295292.00;0.98;509.83;21353.00;0.07;37.61;;;;;12.00;1.00;;;;;;2237004;61;979;-86
2021/12/12 13:54:41;77281.00;0.26;134.34;0.00;0.00;0.62;;;;;12.20;1.00;;;;;;2244289;61;1916;-87
2021/12/12 13:57:21;79441.00;0.26;138.07;0.00;0.00;0.62;;;;;12.40;1.00;;;;;;2243962;61;1403;-88
2021/12/12 14:00:11;351214.00;1.17;605.95;96406.00;0.32;167.37;;;;;12.40;1.00;;;;;;2240425;61;977;-88
2021/12/12 14:02:44;392373.00;1.31;676.69;100367.00;0.33;174.21;;;;;12.60;1.00;;;;;;2251738;61;1086;-88
2021/12/12 14:05:26;430643.00;1.44;742.49;88082.00;0.29;153.00;;;;;12.60;1.00;;;;;;2251875;61;1056;-89
2021/12/12 14:08:06;412920.00;1.38;712.02;90214.00;0.30;156.68;;;;;12.90;1.00;;;;;;2251294;61;993;-88
2021/12/12 14:13:56;112889.00;0.38;195.81;0.00;0.00;0.62;;;;;13.00;1.00;;;;;;2236391;62;1993;-88
2021/12/12 14:19:37;75063.00;0.25;130.51;0.00;0.00;0.62;;;;;12.60;1.00;;;;;;2232413;62;968;-89
2021/12/12 14:25:15;86728.00;0.29;150.66;0.00;0.00;0.62;;;;;12.80;1.00;;;;;;2224230;62;1001;-87
2021/12/12 14:28:03;360811.00;1.20;622.44;105207.00;0.35;182.56;;;;;12.70;1.00;;;;;;2221536;62;1431;-87
2021/12/12 14:31:12;;;;;;;;;;;;;;;;;;;;;
2021/12/12 14:33:58;266766.00;0.89;460.78;57994.00;0.19;101.01;;;;;12.80;1.00;;;;;;2228449;62;2006;-87
2021/12/12 14:36:31;112889.00;0.38;195.81;0.00;0.00;0.62;;;;;13.00;1.00;;;;;;2228431;62;1704;-88
2021/12/12 14:39:10;195562.00;0.65;338.28;0.00;0.00;0.62;;;;;13.10;1.00;;;;;;2228470;62;995;-87
2021/12/12 14:41:45;124296.00;0.41;215.49;0.00;0.00;0.62;;;;;13.00;1.00;;;;;;2236450;62;1038;-88
2021/12/12 14:44:22;68402.00;0.23;119.00;0.00;0.00;0.62;;;;;12.80;1.00;;;;;;2236340;62;1194;-87
2021/12/12 14:47:30;;;;;;;;;;;;;;;;;;;;;
2021/12/12 14:50:42;123699.00;0.41;214.46;0.00;0.00;0.62;;;;;12.60;1.00;;;;;;2240485;61;1008;-88
2021/12/12 14:53:21;430826.00;1.44;742.81;99907.00;0.33;173.41;;;;;12.70;1.00;;;;;;2236220;62;2003;-88
2021/12/12 14:56:19;442873.00;1.48;763.52;99324.00;0.33;172.40;;;;;12.90;1.00;;;;;;2228350;62;1337;-89
2021/12/12 15:42:19;67125.00;0.22;116.79;0.00;0.00;0.62;;;;;13.80;1.00;;;;;;2180684;63;1026;-89
2021/12/12 15:44:55;103370.00;0.34;179.39;0.00;0.00;0.62;;;;;13.80;1.00;;;;;;2178758;63;1124;-89
2021/12/12 15:47:28;179810.00;0.60;311.16;0.00;0.00;0.62;;;;;13.70;1.00;;;;;;2177741;63;1419;-89
2021/12/12 15:50:10;123102480.00;410.34;75576288.00;0.00;0.00;0.62;;;;;13.40;1.00;;;;;;2180665;63;1148;-89
2021/12/12 15:52:49;90053.00;0.30;156.40;0.00;0.00;0.62;;;;;12.80;1.00;;;;;;2182921;63;1037;-88
2021/12/12 15:55:19;207459.00;0.69;358.76;0.00;0.00;0.62;;;;;12.80;1.00;;;;;;2188824;63;2000;-88
2021/12/12 15:57:52;256698.00;0.86;443.47;59096.00;0.20;102.91;;;;;12.90;1.00;;;;;;2194233;63;1467;-86
2021/12/12 16:00:22;123387.00;0.41;213.92;0.00;0.00;0.62;;;;;12.50;1.00;;;;;;2201856;62;1057;-87
2021/12/12 16:02:50;134183.00;0.45;232.54;0.00;0.00;0.62;;;;;12.10;1.00;;;;;;2215934;62;1053;-85
2021/12/12 16:05:25;122362.00;0.41;212.16;48822.00;0.16;85.15;;;;;11.60;1.00;;;;;;2216633;62;966;-87